Terminal Aerodrome Forecast
Issued by NWS

Home | Current Version | Previous Version | Graphics & Text | Print | Product List | Glossary On
Versions: 1 2 3 4 5 6 7 8 9 10 11 12 13 14 15 16 17
000
FTUS43 KICT 171740
TAFCNU
TAF
KCNU 171740Z 1718/1818 18017G25KT P6SM OVC013
     FM172000 19022G26KT P6SM OVC018
     FM172130 20017G22KT P6SM SCT025 BKN300
     FM172300 19013KT P6SM SCT025 BKN250
     FM180500 19013KT 5SM BR BKN008
     FM180800 29009KT 3SM BR OVC005
     FM181100 34025G35KT P6SM OVC008=

USA.gov is the U.S. government's official web portal to all federal, state and local government web resources and services.